Hagerhill, Kentucky
Current Conditions -  °F | °C
As of 10:35 PM on Friday 24 Oct 2014 (Local Time) from KSJS Reporting Station
Clear Clear  
Wind Chill: 49°   Ceiling: Unl
Heat Index: 49°   Visibility: 10mi
Dew Point: 43°   Wind: 0mph
Humidity: 78%   Direction: NA
Pressure: 30.08"   Gusts: NA
Location:  37.79°N, 82.79°W
Report Text: KSJS 250235Z AUTO 00000KT 10SM CLR 10/06 A3008 RMK AO2 T00950059
Loading
Personal Weather Stations






























Interactive Weather Map
Tropical Storm Tracking
New forecast layout! Learn more

10-Day Weather Forecast

Advertisements
Track Severe Weather on mobile